METAR Data
IDs: Format: Raw Decoded Include TAF

Data at: 1507 UTC 27 Nov 2021

LJPZ 271500Z 21004KT 9999 FEW035 13/06 Q0994